Time;durP1;ratioP1;P1;durP2;ratioP2;P2;SDS_P1;SDS_P2;PMS_P1;PMS_P2;Temp;Humidity;BMP_temperature;BMP_pressure;BME280_temperature;BME280_humidity;BME280_pressure;Samples;Min_cycle;Max_cycle;Signal;HPM_P1;HPM_P2
2022/04/21 00:00:08;;;;;;;2.40;1.40;;;7.00;99.90;;;;;;4988288;28;20486;-78
2022/04/21 00:02:36;;;;;;;1.45;1.35;;;7.00;99.90;;;;;;4991389;28;20150;-77
2022/04/21 00:05:03;;;;;;;1.45;1.00;;;7.00;99.90;;;;;;4984788;28;20133;-78
2022/04/21 00:07:31;;;;;;;1.55;1.30;;;6.90;99.90;;;;;;4989976;28;20506;-78
2022/04/21 00:10:00;;;;;;;1.48;1.38;;;6.90;99.90;;;;;;4987230;28;20141;-79
2022/04/21 00:12:28;;;;;;;1.33;1.15;;;6.90;99.90;;;;;;4989949;28;20050;-78
2022/04/21 00:14:56;;;;;;;1.75;1.30;;;6.90;99.90;;;;;;4986853;28;20046;-78
2022/04/21 00:17:24;;;;;;;1.75;1.27;;;6.80;99.90;;;;;;4988119;28;20046;-77
2022/04/21 00:19:51;;;;;;;1.88;1.15;;;6.80;99.90;;;;;;4991107;28;20520;-77
2022/04/21 00:25:06;;;;;;;2.45;1.38;;;6.80;99.90;;;;;;4988732;28;20185;-78
2022/04/21 00:27:38;;;;;;;2.00;1.33;;;6.80;99.90;;;;;;4986850;28;20710;-78
2022/04/21 00:30:08;;;;;;;2.45;1.42;;;6.70;99.90;;;;;;4992058;28;20061;-78
2022/04/21 00:32:36;;;;;;;4.07;1.42;;;6.70;99.90;;;;;;4989632;28;20046;-77
2022/04/21 00:35:05;;;;;;;3.30;1.50;;;6.60;99.90;;;;;;4988465;28;20046;-78
2022/04/21 00:37:33;;;;;;;1.30;1.20;;;6.60;99.90;;;;;;4994370;28;20539;-79
2022/04/21 00:40:00;;;;;;;1.48;1.33;;;6.60;99.90;;;;;;4991176;28;20064;-80
2022/04/21 00:42:29;;;;;;;1.85;1.23;;;6.60;99.90;;;;;;4987065;28;20097;-79
2022/04/21 00:44:57;;;;;;;1.63;1.20;;;6.50;99.90;;;;;;4987594;28;20053;-79
2022/04/21 00:47:24;;;;;;;2.50;1.50;;;6.50;99.90;;;;;;4991139;28;20427;-79
2022/04/21 00:49:52;;;;;;;1.35;1.27;;;6.50;99.90;;;;;;4987752;28;20239;-79
2022/04/21 00:52:21;;;;;;;3.08;1.35;;;6.50;99.90;;;;;;4991501;28;20563;-79
2022/04/21 00:54:49;;;;;;;2.47;1.67;;;6.40;99.90;;;;;;4985938;28;20567;-80
2022/04/21 00:57:17;;;;;;;1.35;1.20;;;6.40;99.90;;;;;;4990512;28;20047;-78
2022/04/21 00:59:46;;;;;;;2.05;1.30;;;6.40;99.90;;;;;;4989439;28;20053;-78
2022/04/21 01:05:00;;;;;;;2.67;1.27;;;6.30;99.90;;;;;;4985940;28;20046;-79
2022/04/21 01:07:28;;;;;;;1.65;1.55;;;6.30;99.90;;;;;;4990516;28;20070;-79
2022/04/21 01:09:56;;;;;;;2.60;1.10;;;6.30;99.90;;;;;;4983467;28;20112;-80
2022/04/21 01:12:24;;;;;;;2.10;1.30;;;6.20;99.90;;;;;;4984468;28;20145;-79
2022/04/21 01:14:53;;;;;;;1.38;1.27;;;6.20;99.90;;;;;;4989543;28;20054;-78
2022/04/21 01:17:32;;;;;;;1.17;1.08;;;6.20;99.90;;;;;;4989141;28;20049;-78
2022/04/21 01:20:00;;;;;;;3.05;1.30;;;6.20;99.90;;;;;;4986418;28;20478;-78
2022/04/21 01:22:29;;;;;;;1.30;1.20;;;6.10;99.90;;;;;;4985666;28;20070;-78
2022/04/21 01:24:57;;;;;;;1.90;1.58;;;6.10;99.90;;;;;;4989055;28;20050;-78
2022/04/21 01:27:29;;;;;;;2.65;1.20;;;6.00;99.90;;;;;;4987341;28;20132;-79
2022/04/21 01:29:56;;;;;;;1.40;1.30;;;6.00;99.90;;;;;;4986965;28;20050;-79
2022/04/21 01:32:24;;;;;;;1.75;1.50;;;6.00;99.90;;;;;;4988345;28;20593;-79
2022/04/21 01:34:51;;;;;;;1.70;1.25;;;5.90;99.90;;;;;;4978813;28;20077;-79
2022/04/21 01:42:52;;;;;;;1.92;1.70;;;5.90;99.90;;;;;;4977896;28;20446;-78
2022/04/21 01:45:22;;;;;;;2.78;1.45;;;5.90;99.90;;;;;;4988444;28;20058;-78
2022/04/21 01:47:50;;;;;;;5.93;2.00;;;5.80;99.90;;;;;;4988218;28;20066;-78
2022/04/21 01:50:17;;;;;;;2.15;1.75;;;5.80;99.90;;;;;;4983341;28;20101;-78
2022/04/21 01:52:44;;;;;;;1.73;1.63;;;5.80;99.90;;;;;;4990690;28;20517;-79
2022/04/21 01:55:14;;;;;;;4.38;2.10;;;5.70;99.90;;;;;;4983905;28;20070;-79
2022/04/21 01:57:41;;;;;;;1.88;1.70;;;5.70;99.90;;;;;;4972377;28;20054;-79
2022/04/21 02:00:10;;;;;;;3.00;1.88;;;5.70;99.90;;;;;;4999789;28;20078;-79
2022/04/21 02:02:38;;;;;;;3.17;1.63;;;5.70;99.90;;;;;;4990931;28;20077;-80
2022/04/21 02:05:06;;;;;;;2.35;1.77;;;5.60;99.90;;;;;;4988910;28;20116;-79
2022/04/21 02:07:34;;;;;;;3.40;1.98;;;5.60;99.90;;;;;;4985988;28;20043;-80
2022/04/21 02:10:02;;;;;;;2.30;2.10;;;5.60;99.90;;;;;;4989561;28;20138;-80
2022/04/21 02:12:31;;;;;;;3.90;2.00;;;5.60;99.90;;;;;;4990011;28;20054;-80
2022/04/21 02:15:00;;;;;;;2.08;1.90;;;5.50;99.90;;;;;;4983005;28;20212;-79
2022/04/21 02:17:32;;;;;;;2.45;1.70;;;5.50;99.90;;;;;;4990214;28;20510;-79
2022/04/21 02:19:59;;;;;;;6.57;2.10;;;5.50;99.90;;;;;;4979085;28;20068;-79
2022/04/21 02:22:27;;;;;;;3.47;2.20;;;5.50;99.90;;;;;;4985992;28;20061;-80
2022/04/21 02:24:54;;;;;;;2.70;2.20;;;5.40;99.90;;;;;;4989136;28;20043;-79
2022/04/21 02:27:21;;;;;;;6.68;3.15;;;5.40;99.90;;;;;;4991851;28;20045;-80
2022/04/21 02:29:52;;;;;;;2.58;2.10;;;5.40;99.90;;;;;;4993882;28;20057;-78
2022/04/21 02:32:19;;;;;;;3.20;2.20;;;5.40;99.90;;;;;;4989774;28;20078;-78
2022/04/21 02:34:47;;;;;;;6.00;2.97;;;5.40;99.90;;;;;;4990128;28;20078;-78
2022/04/21 02:37:14;;;;;;;3.10;2.13;;;5.40;99.90;;;;;;4986662;28;20519;-78
2022/04/21 02:39:42;;;;;;;3.70;2.15;;;5.40;99.90;;;;;;4988066;28;20089;-78
2022/04/21 02:42:10;;;;;;;3.28;2.30;;;5.40;99.90;;;;;;4984598;28;20062;-78
2022/04/21 02:44:38;;;;;;;2.47;2.28;;;5.40;99.90;;;;;;4990258;28;20046;-78
2022/04/21 02:47:08;;;;;;;6.72;2.47;;;5.30;99.90;;;;;;4986925;28;20051;-78
2022/04/21 02:49:37;;;;;;;5.70;2.50;;;5.30;99.90;;;;;;4985829;28;20054;-78
2022/04/21 02:52:06;;;;;;;2.78;2.15;;;5.30;99.90;;;;;;4989762;28;20057;-78
2022/04/21 02:57:22;;;;;;;2.28;2.00;;;5.30;99.90;;;;;;4979787;28;20407;-77
2022/04/21 02:59:52;;;;;;;5.32;2.05;;;5.20;99.90;;;;;;4980034;28;20149;-78
2022/04/21 03:02:23;;;;;;;2.25;2.05;;;5.20;99.90;;;;;;4985027;28;20063;-78
2022/04/21 03:04:52;;;;;;;4.82;2.10;;;5.20;99.90;;;;;;4981313;28;20069;-78
2022/04/21 03:07:22;;;;;;;3.25;2.20;;;5.30;99.90;;;;;;5008710;28;20525;-78
2022/04/21 03:09:50;;;;;;;3.47;2.00;;;5.30;99.90;;;;;;4990969;28;20046;-78
2022/04/21 03:12:17;;;;;;;3.00;2.03;;;5.30;99.90;;;;;;4989926;28;20431;-77
2022/04/21 03:14:45;;;;;;;2.10;1.90;;;5.30;99.90;;;;;;4991551;28;20112;-78
2022/04/21 03:17:13;;;;;;;4.15;2.08;;;5.30;99.90;;;;;;4993933;28;20053;-79
2022/04/21 03:19:42;;;;;;;4.78;1.55;;;5.30;99.90;;;;;;4987799;28;20061;-79
2022/04/21 03:25:01;;;;;;;2.30;1.65;;;5.40;99.90;;;;;;4972382;28;20062;-80
2022/04/21 03:27:31;;;;;;;5.78;2.10;;;5.40;99.90;;;;;;4989373;28;20043;-79
2022/04/21 03:29:59;;;;;;;5.55;1.70;;;5.40;99.90;;;;;;4990650;28;20140;-80
2022/04/21 03:32:27;;;;;;;3.40;1.88;;;5.50;99.90;;;;;;4992650;28;20493;-79
2022/04/21 03:34:56;;;;;;;3.22;1.73;;;5.50;99.90;;;;;;4992787;28;20522;-79
2022/04/21 03:37:24;;;;;;;3.65;2.63;;;5.40;99.90;;;;;;4983993;28;20389;-79
2022/04/21 03:39:51;;;;;;;8.05;2.15;;;5.40;99.90;;;;;;4990635;28;20121;-78
2022/04/21 03:42:20;;;;;;;2.15;1.80;;;5.50;99.90;;;;;;4990275;28;20042;-79
2022/04/21 03:44:48;;;;;;;4.53;1.80;;;5.50;99.90;;;;;;4993066;28;20043;-81
2022/04/21 03:47:15;;;;;;;3.15;2.00;;;5.40;99.90;;;;;;4988379;28;20454;-79
2022/04/21 03:49:43;;;;;;;4.38;2.00;;;5.50;99.90;;;;;;4989465;28;20038;-82
2022/04/21 03:52:12;;;;;;;3.78;1.70;;;5.50;99.90;;;;;;4991706;28;20104;-80
2022/04/21 03:54:40;;;;;;;3.83;2.13;;;5.60;99.90;;;;;;4993413;28;20408;-82
2022/04/21 03:57:08;;;;;;;3.65;2.20;;;5.60;99.90;;;;;;4985702;28;20138;-81
2022/04/21 03:59:37;;;;;;;7.85;2.22;;;5.60;99.90;;;;;;4990191;28;20057;-80
2022/04/21 04:02:05;;;;;;;3.42;1.85;;;5.70;99.90;;;;;;4988928;28;20134;-81
2022/04/21 04:04:34;;;;;;;9.68;2.05;;;5.80;99.90;;;;;;4991058;28;20130;-80
2022/04/21 04:12:38;;;;;;;5.80;2.28;;;5.70;99.90;;;;;;5000628;28;20058;-77
2022/04/21 04:15:09;;;;;;;6.70;2.20;;;5.80;99.90;;;;;;4988798;28;20153;-79
2022/04/21 04:17:37;;;;;;;3.25;1.98;;;5.80;99.90;;;;;;4991443;28;20050;-80
2022/04/21 04:20:06;;;;;;;3.47;1.92;;;5.90;99.90;;;;;;4991267;28;20054;-80
2022/04/21 04:22:36;;;;;;;3.90;1.70;;;5.90;99.90;;;;;;4978371;28;20054;-79
2022/04/21 04:25:08;;;;;;;2.10;1.92;;;6.00;99.90;;;;;;4987146;28;20050;-88
2022/04/21 04:27:36;;;;;;;5.95;1.85;;;6.00;99.90;;;;;;4997746;28;20070;-87
2022/04/21 04:30:07;;;;;;;7.32;1.85;;;6.10;99.90;;;;;;4971376;28;20094;-83
2022/04/21 04:32:35;;;;;;;4.32;1.92;;;6.10;99.90;;;;;;4979348;28;20050;-82
2022/04/21 04:35:03;;;;;;;6.63;1.98;;;6.20;99.90;;;;;;4989898;28;20482;-77
2022/04/21 04:37:30;;;;;;;2.75;1.77;;;6.20;99.90;;;;;;4988633;28;20522;-77
2022/04/21 04:39:59;;;;;;;4.75;1.98;;;6.30;99.90;;;;;;4989504;28;20046;-78
2022/04/21 04:42:28;;;;;;;3.15;2.10;;;6.40;99.90;;;;;;4979020;28;20050;-78
2022/04/21 04:47:37;;;;;;;3.45;2.40;;;6.50;99.90;;;;;;4989642;28;20048;-80
2022/04/21 04:50:06;;;;;;;5.32;2.00;;;6.60;99.90;;;;;;4991969;28;20048;-80
2022/04/21 04:52:34;;;;;;;8.45;1.88;;;6.60;99.90;;;;;;4985663;28;20050;-81
2022/04/21 04:55:01;;;;;;;3.28;1.80;;;6.70;99.90;;;;;;4986838;28;20061;-81
2022/04/21 04:57:33;;;;;;;4.35;2.13;;;6.70;99.90;;;;;;4975750;28;20105;-78
2022/04/21 05:00:00;;;;;;;2.10;1.90;;;6.80;99.90;;;;;;4989912;28;20054;-80
2022/04/21 05:02:27;;;;;;;8.02;2.50;;;6.90;99.90;;;;;;4970719;28;20046;-77
2022/04/21 05:04:55;;;;;;;5.20;1.85;;;7.00;99.90;;;;;;4990365;28;20065;-74
2022/04/21 05:07:22;;;;;;;4.60;2.10;;;7.10;99.90;;;;;;4990091;28;20050;-77
2022/04/21 05:09:50;;;;;;;4.90;1.92;;;7.10;99.90;;;;;;4984836;28;20050;-77
2022/04/21 05:12:18;;;;;;;4.45;1.90;;;7.20;99.90;;;;;;4988235;28;20057;-80
2022/04/21 05:14:48;;;;;;;9.13;2.10;;;7.30;99.90;;;;;;4972758;28;20423;-79
2022/04/21 05:17:16;;;;;;;6.82;1.80;;;7.30;99.90;;;;;;4990627;28;20474;-77
2022/04/21 05:19:45;;;;;;;3.85;1.58;;;7.40;99.90;;;;;;4979253;28;20511;-78
2022/04/21 05:22:14;;;;;;;10.95;2.00;;;7.50;99.90;;;;;;4988538;28;20074;-78
2022/04/21 05:24:46;;;;;;;4.57;1.80;;;7.50;99.90;;;;;;4985389;28;20046;-79
2022/04/21 05:27:15;;;;;;;5.15;1.35;;;7.60;99.90;;;;;;4970868;28;20055;-78
2022/04/21 05:32:37;;;;;;;6.18;1.65;;;8.50;99.90;;;;;;4991776;28;20451;-78
2022/04/21 05:35:07;;;;;;;6.22;2.30;;;9.10;99.90;;;;;;5003508;28;20091;-78
2022/04/21 05:37:35;;;;;;;5.35;2.13;;;9.70;99.90;;;;;;4994599;28;20042;-80
2022/04/21 05:40:04;;;;;;;4.70;1.80;;;10.10;99.90;;;;;;4991416;28;20084;-78
2022/04/21 05:42:35;;;;;;;2.35;1.27;;;10.60;99.90;;;;;;5013318;28;20048;-81
2022/04/21 05:45:04;;;;;;;2.05;1.80;;;11.10;99.90;;;;;;4997880;28;20137;-77
2022/04/21 05:47:34;;;;;;;1.90;1.45;;;11.60;99.90;;;;;;4985043;28;20046;-78
2022/04/21 05:50:02;;;;;;;2.97;2.05;;;12.00;99.90;;;;;;5001067;28;20422;-79
2022/04/21 05:52:31;;;;;;;6.38;2.17;;;12.40;99.90;;;;;;4985790;28;20116;-78
2022/04/21 05:55:00;;;;;;;11.90;1.85;;;12.80;99.90;;;;;;4994219;28;20046;-78
2022/04/21 05:57:27;;;;;;;4.63;1.67;;;13.00;99.70;;;;;;4992182;28;20050;-77
2022/04/21 05:59:55;;;;;;;5.15;2.72;;;13.30;99.90;;;;;;4994340;28;20078;-77
2022/04/21 06:02:23;;;;;;;10.52;1.85;;;13.70;98.10;;;;;;4992674;28;20506;-78
2022/04/21 06:04:58;;;;;;;4.75;1.73;;;14.10;92.30;;;;;;4974298;28;20055;-81
2022/04/21 06:07:25;;;;;;;7.57;1.85;;;14.30;92.40;;;;;;4987096;28;20206;-81
2022/04/21 06:09:54;;;;;;;4.75;1.58;;;14.60;91.30;;;;;;4992963;28;20049;-80
2022/04/21 06:12:25;;;;;;;8.30;1.58;;;15.00;89.40;;;;;;4993543;28;20473;-77
2022/04/21 06:14:53;;;;;;;9.40;2.45;;;15.40;86.00;;;;;;4992155;28;20038;-77
2022/04/21 06:17:21;;;;;;;5.18;2.05;;;15.80;81.20;;;;;;5005008;28;20423;-77
2022/04/21 06:19:49;;;;;;;32.95;5.70;;;16.10;78.60;;;;;;5007247;28;20057;-77
2022/04/21 06:22:18;;;;;;;12.45;3.72;;;16.40;76.10;;;;;;5021484;28;20132;-75
2022/04/21 06:24:45;;;;;;;27.30;7.30;;;16.70;73.60;;;;;;5005827;28;20404;-79
2022/04/21 06:27:12;;;;;;;15.93;2.85;;;16.80;72.20;;;;;;5005197;28;20156;-75
2022/04/21 06:29:40;;;;;;;39.13;12.00;;;17.10;70.00;;;;;;5003788;28;20382;-82
2022/04/21 06:32:09;;;;;;;9.52;2.17;;;17.40;68.30;;;;;;5010329;28;20042;-78
2022/04/21 06:34:36;;;;;;;3.95;1.80;;;17.50;66.70;;;;;;5002715;28;20073;-83
2022/04/21 06:37:05;;;;;;;26.10;6.38;;;17.70;65.50;;;;;;5008612;28;20069;-78
2022/04/21 06:39:34;;;;;;;2.80;2.33;;;17.90;65.30;;;;;;5008332;28;20052;-80
2022/04/21 06:42:01;;;;;;;5.22;1.83;;;18.10;63.60;;;;;;4994421;28;20042;-79
2022/04/21 06:49:59;;;;;;;12.73;4.10;;;18.90;60.60;;;;;;5000916;28;20080;-79
2022/04/21 06:52:26;;;;;;;10.38;2.25;;;19.30;59.80;;;;;;4991027;28;20038;-80
2022/04/21 06:54:55;;;;;;;7.50;1.50;;;19.50;57.80;;;;;;5005062;28;20047;-80
2022/04/21 06:57:24;;;;;;;13.35;1.77;;;19.60;59.10;;;;;;4991419;28;20065;-81
2022/04/21 06:59:51;;;;;;;1.85;1.70;;;19.80;57.00;;;;;;4988282;28;20506;-78
2022/04/21 07:02:27;;;;;;;3.40;1.70;;;19.90;56.30;;;;;;4986122;28;20061;-81
2022/04/21 07:04:54;;;;;;;10.90;1.83;;;19.60;57.20;;;;;;4989277;28;20074;-81
2022/04/21 07:07:21;;;;;;;9.35;2.33;;;19.90;57.50;;;;;;4991566;28;20061;-80
2022/04/21 07:09:49;;;;;;;6.13;2.00;;;20.30;56.90;;;;;;4973495;28;20054;-80
2022/04/21 07:12:18;;;;;;;4.68;1.80;;;20.60;55.70;;;;;;4989361;28;20104;-79
2022/04/21 07:14:45;;;;;;;6.57;1.70;;;20.70;55.90;;;;;;4992015;28;20521;-80
2022/04/21 07:17:13;;;;;;;6.40;1.83;;;21.10;54.90;;;;;;4984599;28;20061;-80
2022/04/21 07:19:41;;;;;;;9.45;1.92;;;21.30;53.50;;;;;;4977554;28;20459;-79
2022/04/21 07:22:09;;;;;;;4.55;1.73;;;21.50;53.90;;;;;;4990260;28;20057;-79
2022/04/21 07:24:37;;;;;;;3.55;1.45;;;21.70;52.90;;;;;;4990389;28;20042;-79
2022/04/21 07:27:05;;;;;;;9.40;1.58;;;22.10;52.80;;;;;;4992423;28;20054;-80
2022/04/21 07:29:36;;;;;;;6.40;1.60;;;22.30;52.10;;;;;;4990407;28;20057;-79
2022/04/21 07:32:07;;;;;;;6.82;1.40;;;22.20;51.50;;;;;;4990632;28;20157;-80
2022/04/21 07:34:35;;;;;;;11.55;1.40;;;22.40;51.00;;;;;;4991046;28;20054;-80
2022/04/21 07:37:07;;;;;;;3.78;1.45;;;22.30;50.70;;;;;;4991425;28;20061;-80
2022/04/21 07:39:34;;;;;;;10.70;1.80;;;22.40;51.30;;;;;;4989616;28;20050;-77
2022/04/21 07:42:02;;;;;;;4.78;1.50;;;22.60;50.10;;;;;;4991163;28;20054;-77
2022/04/21 07:44:31;;;;;;;8.82;2.03;;;22.80;50.30;;;;;;4988321;28;20046;-77
2022/04/21 07:46:59;;;;;;;3.47;1.30;;;22.90;50.00;;;;;;4991463;28;20050;-78
2022/04/21 07:55:09;;;;;;;6.95;1.27;;;23.70;48.70;;;;;;4989644;28;20511;-78
2022/04/21 07:57:37;;;;;;;13.63;1.70;;;23.80;47.80;;;;;;4990257;28;20061;-78
2022/04/21 08:00:07;;;;;;;7.05;1.52;;;24.10;47.90;;;;;;4990878;28;20062;-78
2022/04/21 08:02:44;;;;;;;5.68;1.60;;;24.60;47.80;;;;;;4982274;28;20058;-78
2022/04/21 08:05:14;;;;;;;3.45;1.30;;;24.70;46.20;;;;;;4991916;28;20069;-78
2022/04/21 08:07:42;;;;;;;6.38;1.20;;;24.50;45.80;;;;;;4989960;28;20180;-78
2022/04/21 08:10:12;;;;;;;6.57;1.65;;;24.40;46.70;;;;;;4989290;28;21074;-76
2022/04/21 08:12:41;;;;;;;3.38;1.02;;;24.70;46.50;;;;;;4990594;28;20141;-79
2022/04/21 08:15:10;;;;;;;7.28;2.33;;;25.00;45.50;;;;;;4989202;28;20046;-76
2022/04/21 08:17:38;;;;;;;8.82;1.90;;;24.90;45.90;;;;;;4985873;28;20108;-79
2022/04/21 08:20:09;;;;;;;5.30;1.30;;;25.10;45.80;;;;;;4984886;28;20077;-79
2022/04/21 08:22:38;;;;;;;1.27;1.17;;;25.50;45.70;;;;;;4989743;28;20061;-78
2022/04/21 08:33:23;;;;;;;6.32;1.45;;;25.20;44.00;;;;;;4960867;28;20080;-79
2022/04/21 08:35:57;;;;;;;6.82;1.20;;;25.10;44.40;;;;;;4982908;28;20042;-79
2022/04/21 08:38:25;;;;;;;12.10;1.48;;;25.30;44.30;;;;;;4988758;28;20047;-79
2022/04/21 08:40:55;;;;;;;8.88;1.50;;;25.60;44.60;;;;;;4989977;28;20050;-78
2022/04/21 08:43:25;;;;;;;16.10;2.10;;;25.80;43.90;;;;;;4991306;28;20137;-80
2022/04/21 08:45:54;;;;;;;7.82;1.50;;;26.20;44.30;;;;;;4986475;28;20506;-78
2022/04/21 08:48:24;;;;;;;17.25;2.00;;;26.60;43.30;;;;;;4990016;28;20519;-78
2022/04/21 08:50:56;;;;;;;12.45;1.63;;;26.70;42.60;;;;;;4991042;28;20112;-79
2022/04/21 08:53:25;;;;;;;10.32;1.60;;;26.30;42.00;;;;;;4982110;28;20050;-78
2022/04/21 08:55:53;;;;;;;3.33;1.02;;;26.30;42.20;;;;;;4987465;28;20161;-79
2022/04/21 08:58:21;;;;;;;10.43;1.50;;;26.10;42.20;;;;;;4988839;28;20078;-79
2022/04/21 09:00:51;;;;;;;11.02;2.08;;;25.90;42.00;;;;;;4988889;28;20057;-79
2022/04/21 09:03:19;;;;;;;7.75;1.60;;;26.10;42.90;;;;;;4984308;28;20047;-80
2022/04/21 09:05:47;;;;;;;14.27;2.05;;;26.40;42.10;;;;;;4989372;28;20058;-80
2022/04/21 09:08:24;;;;;;;16.58;2.13;;;26.60;41.60;;;;;;4988590;28;20046;-79
2022/04/21 09:11:07;;;;;;;22.50;2.30;;;26.40;41.60;;;;;;4990784;28;20050;-79
2022/04/21 09:13:36;;;;;;;;;;;26.60;41.50;;;;;;4987360;28;20058;-79
2022/04/21 09:16:04;;;;;;;13.63;1.63;;;26.70;41.10;;;;;;4989096;28;19978;-82
2022/04/21 09:18:43;;;;;;;8.15;1.30;;;26.70;41.60;;;;;;4989193;28;20474;-79
2022/04/21 09:21:14;;;;;;;7.18;1.33;;;26.40;41.10;;;;;;4984766;28;20121;-82
2022/04/21 09:23:44;;;;;;;143.27;8.65;;;26.20;41.20;;;;;;4988432;28;20093;-83
2022/04/21 09:26:17;;;;;;;23.95;3.20;;;26.20;41.60;;;;;;4989446;28;20081;-82
2022/04/21 09:28:57;;;;;;;6.45;1.40;;;26.40;41.60;;;;;;4988621;28;20054;-83
2022/04/21 09:31:27;;;;;;;4.88;1.40;;;26.70;41.10;;;;;;4986123;28;20064;-83
2022/04/21 09:33:56;;;;;;;6.05;1.17;;;26.90;40.80;;;;;;4986954;28;20586;-84
2022/04/21 09:36:24;;;;;;;9.77;1.20;;;27.10;40.50;;;;;;4987439;28;20568;-84
2022/04/21 09:39:01;;;;;;;4.57;1.30;;;27.10;40.80;;;;;;4990015;28;20061;-83
2022/04/21 09:41:30;;;;;;;6.25;1.58;;;27.00;40.60;;;;;;4982808;28;20058;-84
2022/04/21 09:46:07;;;;;;;9.23;1.58;;;26.90;41.00;;;;;;4987224;28;20081;-82
2022/04/21 09:46:56;;;;;;;2.08;1.00;;;27.10;41.10;;;;;;4988150;28;20046;-82
2022/04/21 09:49:35;;;;;;;3.95;1.50;;;27.30;39.70;;;;;;4989696;28;20057;-82
2022/04/21 09:52:03;;;;;;;5.57;1.80;;;27.20;40.70;;;;;;4986750;28;20506;-80
2022/04/21 09:54:33;;;;;;;4.60;1.17;;;27.40;41.00;;;;;;5004215;28;20602;-80
2022/04/21 09:57:02;;;;;;;2.63;1.60;;;27.60;39.20;;;;;;4989571;28;20118;-82
2022/04/21 09:59:35;;;;;;;5.20;1.38;;;27.10;40.20;;;;;;4987764;28;20046;-81
2022/04/21 10:02:04;;;;;;;2.85;1.48;;;27.20;40.60;;;;;;4976233;28;20132;-79
2022/04/21 10:04:32;;;;;;;4.93;1.45;;;27.50;41.60;;;;;;4989085;28;20047;-79
2022/04/21 10:07:00;;;;;;;24.85;2.30;;;27.90;40.10;;;;;;4989260;28;20082;-81
2022/04/21 10:09:29;;;;;;;7.57;1.67;;;28.20;39.20;;;;;;4981728;28;20056;-81
2022/04/21 10:11:59;;;;;;;4.88;1.35;;;28.20;39.10;;;;;;4988204;28;20129;-81
2022/04/21 10:14:27;;;;;;;7.45;1.20;;;28.10;39.60;;;;;;4989103;28;20428;-83
2022/04/21 10:16:55;;;;;;;3.47;1.23;;;28.40;39.50;;;;;;4989281;28;20038;-77
2022/04/21 10:19:24;;;;;;;15.10;1.73;;;28.70;39.30;;;;;;4987466;28;20205;-80
2022/04/21 10:21:55;;;;;;;3.90;1.17;;;28.70;39.30;;;;;;4988129;28;20507;-80
2022/04/21 10:24:23;;;;;;;6.47;1.65;;;28.80;38.70;;;;;;5005115;28;20537;-84
2022/04/21 10:26:52;;;;;;;3.25;1.13;;;29.00;38.70;;;;;;4981172;28;20047;-82
2022/04/21 10:29:25;;;;;;;10.90;1.40;;;28.90;38.80;;;;;;4986251;28;20057;-85
2022/04/21 10:31:57;;;;;;;4.05;1.17;;;29.00;38.60;;;;;;4984925;28;20503;-81
2022/04/21 10:34:34;;;;;;;13.93;1.75;;;29.00;38.80;;;;;;4989690;28;20156;-79
2022/04/21 10:37:16;;;;;;;4.70;1.27;;;29.10;38.40;;;;;;4988052;28;20148;-81
2022/04/21 10:40:06;;;;;;;2.17;1.60;;;29.40;38.50;;;;;;4988586;28;20569;-80
2022/04/21 10:43:03;;;;;;;10.10;1.23;;;29.60;38.10;;;;;;4976870;28;20058;-80
2022/04/21 10:45:33;;;;;;;2.70;1.13;;;29.70;37.70;;;;;;5006891;28;20066;-82
2022/04/21 10:48:08;;;;;;;1.65;1.10;;;29.40;38.10;;;;;;4991478;28;20400;-83
2022/04/21 10:50:38;;;;;;;1.33;1.10;;;29.10;37.70;;;;;;4991125;28;20076;-82
2022/04/21 10:58:52;;;;;;;5.15;1.33;;;27.90;38.70;;;;;;4987621;28;20054;-81
2022/04/21 11:01:31;;;;;;;2.80;1.00;;;27.40;39.90;;;;;;4988748;28;20084;-82
2022/04/21 11:04:24;;;;;;;14.48;1.70;;;27.30;40.30;;;;;;4984397;28;20109;-84
2022/04/21 11:06:56;;;;;;;4.65;1.27;;;27.20;40.20;;;;;;4991246;28;20590;-81
2022/04/21 11:09:43;;;;;;;19.50;2.20;;;27.30;40.40;;;;;;4991159;28;20050;-84
2022/04/21 11:12:14;;;;;;;26.13;2.67;;;27.60;40.30;;;;;;4992231;28;20499;-82
2022/04/21 11:14:43;;;;;;;11.32;1.77;;;28.40;39.60;;;;;;4984140;28;20046;-82
2022/04/21 11:17:13;;;;;;;32.20;2.72;;;29.00;37.70;;;;;;4992865;28;20080;-80
2022/04/21 11:19:53;;;;;;;12.80;2.28;;;29.20;37.60;;;;;;4985873;28;20042;-80
2022/04/21 11:22:39;;;;;;;12.60;1.40;;;29.50;36.70;;;;;;4974899;28;20134;-80
2022/04/21 11:25:08;;;;;;;37.03;2.35;;;29.70;36.60;;;;;;4990263;28;20826;-78
2022/04/21 11:27:44;;;;;;;12.93;1.35;;;29.80;36.80;;;;;;4990042;28;20054;-79
2022/04/21 11:30:14;;;;;;;10.90;1.02;;;30.20;36.50;;;;;;4988184;28;20047;-79
2022/04/21 11:32:52;;;;;;;19.40;2.00;;;30.60;36.20;;;;;;4986692;28;20479;-79
2022/04/21 11:35:22;;;;;;;9.98;1.65;;;30.80;35.80;;;;;;5006265;28;20197;-80
2022/04/21 11:37:57;;;;;;;14.15;1.27;;;30.60;36.00;;;;;;4989567;28;20058;-81
2022/04/21 11:40:36;;;;;;;8.30;1.20;;;30.70;35.60;;;;;;4988832;28;20529;-82
2022/04/21 11:43:07;;;;;;;4.18;1.65;;;30.80;35.50;;;;;;4987629;28;20101;-80
2022/04/21 11:45:38;;;;;;;7.07;1.00;;;30.70;35.00;;;;;;4990301;28;20065;-81
2022/04/21 11:48:15;;;;;;;6.55;1.00;;;30.60;35.70;;;;;;4995015;28;20530;-82
2022/04/21 11:50:47;;;;;;;5.75;1.17;;;31.00;35.60;;;;;;4984883;28;20140;-81
2022/04/21 11:53:18;;;;;;;;;;;31.20;34.70;;;;;;4983124;28;20105;-81
2022/04/21 11:55:47;;;;;;;7.80;1.10;;;31.20;35.30;;;;;;4990189;28;20001;-79
2022/04/21 11:58:28;;;;;;;9.05;1.08;;;31.40;35.10;;;;;;4987069;28;20062;-82
2022/04/21 12:06:39;;;;;;;10.88;1.27;;;31.50;34.30;;;;;;4990615;28;20088;-81
2022/04/21 12:09:12;;;;;;;23.33;2.30;;;31.40;34.40;;;;;;4984904;28;20076;-81
2022/04/21 12:11:40;;;;;;;10.82;1.48;;;31.40;34.20;;;;;;4988930;28;20050;-80
2022/04/21 12:14:08;;;;;;;0.90;0.80;;;31.60;34.00;;;;;;4991053;28;20110;-79
2022/04/21 12:16:40;;;;;;;6.25;1.40;;;31.40;33.80;;;;;;4991402;28;20050;-80
2022/04/21 12:19:32;;;;;;;9.68;1.02;;;31.30;34.50;;;;;;4976774;28;20053;-80
2022/04/21 12:22:05;;;;;;;16.75;2.60;;;31.40;34.20;;;;;;4969806;28;20340;-82
2022/04/21 12:24:36;;;;;;;18.92;1.90;;;31.30;34.10;;;;;;4972270;28;20058;-81
2022/04/21 12:27:06;;;;;;;19.88;2.78;;;31.20;33.90;;;;;;4986336;28;20419;-81
2022/04/21 12:29:48;;;;;;;9.70;1.15;;;31.30;34.20;;;;;;4987469;28;20729;-85
2022/04/21 12:32:18;;;;;;;;;;;31.40;33.60;;;;;;4983506;28;20057;-80
2022/04/21 12:34:47;;;;;;;6.90;1.10;;;31.30;33.90;;;;;;4990864;28;20309;-80
2022/04/21 12:37:15;;;;;;;9.18;1.25;;;31.20;35.40;;;;;;4984337;28;20176;-82
2022/04/21 12:39:42;;;;;;;10.35;1.77;;;31.40;34.20;;;;;;4990072;28;20046;-81
2022/04/21 12:42:11;;;;;;;8.70;1.35;;;31.40;33.60;;;;;;4990430;28;20517;-83
2022/04/21 12:44:42;;;;;;;3.47;1.23;;;31.20;33.90;;;;;;4973472;28;20081;-83
2022/04/21 12:47:15;;;;;;;;;;;31.00;34.20;;;;;;4984238;28;20053;-85
2022/04/21 12:50:01;;;;;;;10.23;1.38;;;31.00;34.20;;;;;;4972373;28;20028;-80
2022/04/21 12:52:37;;;;;;;8.02;1.33;;;31.20;33.60;;;;;;4991577;28;20394;-83
2022/04/21 12:55:11;;;;;;;8.63;1.00;;;31.10;34.10;;;;;;4987588;28;20053;-84
2022/04/21 12:57:41;;;;;;;7.10;1.40;;;31.10;33.90;;;;;;4990128;28;20046;-82
2022/04/21 13:00:11;;;;;;;9.40;1.60;;;31.00;33.90;;;;;;5000687;28;20136;-82
2022/04/21 13:02:39;;;;;;;17.92;1.70;;;31.00;33.80;;;;;;4989957;28;20066;-85
2022/04/21 13:05:09;;;;;;;11.50;1.48;;;30.90;33.90;;;;;;4983109;28;20423;-85
2022/04/21 13:07:36;;;;;;;7.55;1.10;;;31.20;33.80;;;;;;5005251;28;20145;-78
2022/04/21 13:10:05;;;;;;;7.57;1.13;;;31.30;33.50;;;;;;4990048;28;20054;-77
2022/04/21 13:12:33;;;;;;;14.63;1.60;;;31.10;33.50;;;;;;4988329;28;20058;-77
2022/04/21 13:15:01;;;;;;;8.40;1.52;;;30.90;33.90;;;;;;4986344;28;20303;-79
2022/04/21 13:17:31;;;;;;;26.98;2.40;;;30.60;33.80;;;;;;4983601;28;20053;-78
2022/04/21 13:19:59;;;;;;;24.13;2.47;;;30.70;34.30;;;;;;4976241;28;20089;-77
2022/04/21 13:22:29;;;;;;;6.05;1.38;;;30.70;33.90;;;;;;4988244;28;20052;-80
2022/04/21 13:24:56;;;;;;;4.53;1.00;;;30.90;33.80;;;;;;4979096;28;20566;-76
2022/04/21 13:27:26;;;;;;;11.45;2.10;;;30.80;33.60;;;;;;4988267;28;20141;-84
2022/04/21 13:29:54;;;;;;;27.23;1.98;;;30.50;34.10;;;;;;4988840;28;20054;-79
2022/04/21 13:35:09;;;;;;;16.23;1.40;;;29.90;33.90;;;;;;4988511;28;20062;-75
2022/04/21 13:37:38;;;;;;;12.60;1.20;;;29.60;34.40;;;;;;4986929;28;20061;-76
2022/04/21 13:40:08;;;;;;;11.70;1.52;;;29.50;34.70;;;;;;4990706;28;20137;-77
2022/04/21 13:42:35;;;;;;;12.13;1.90;;;29.50;35.00;;;;;;4980950;28;20060;-76
2022/04/21 13:45:03;;;;;;;13.00;1.35;;;29.40;34.50;;;;;;5005560;28;20353;-77
2022/04/21 13:47:31;;;;;;;9.18;1.10;;;29.50;34.40;;;;;;4987781;28;20124;-77
2022/04/21 13:49:59;;;;;;;12.02;1.10;;;29.40;34.50;;;;;;4988908;28;20299;-76
2022/04/21 13:52:26;;;;;;;9.68;1.27;;;29.50;34.40;;;;;;4979966;28;20050;-76
2022/04/21 13:54:55;;;;;;;7.72;1.05;;;29.50;34.30;;;;;;4986408;28;20811;-75
2022/04/21 13:57:23;;;;;;;4.40;1.10;;;29.00;34.80;;;;;;4988943;28;20052;-76
2022/04/21 13:59:51;;;;;;;6.85;1.15;;;28.70;34.90;;;;;;4984219;28;20167;-75
2022/04/21 14:02:18;;;;;;;6.30;1.42;;;28.90;35.10;;;;;;4990003;28;20130;-76
2022/04/21 14:04:46;;;;;;;5.90;1.30;;;28.70;35.00;;;;;;4990241;28;20054;-77